Sleaford, United Kingdom
Current Conditions -  °F | °C
As of 10:50 PM on Wednesday 17 Dec 2014 (Local Time) from EGYD Reporting Station
Few Clouds Few Clouds  
Wind Chill: 50°   Ceiling: Unl
Heat Index: 50°   Visibility: 6mi
Dew Point: 48°   Wind: 20mph
Humidity: 94%   Direction: 270°W
Pressure: 29.65"   Gusts: NA
Location:  53°N, 0.41°W
Report Text: EGYD 172250Z AUTO 27017KT 9999 // FEW070/// 10/09 Q1004
Loading
Personal Weather Stations






























Interactive Weather Map New forecast layout! Learn more

10-Day Weather Forecast

Advertisements
Track Severe Weather on mobile